sensor_id;sensor_type;location;lat;lon;timestamp;P1;durP1;ratioP1;P2;durP2;ratioP2
12350;SDS011;6240;51.538;7.696;2022-08-19T00:01:24;6.57;;;5.97;;
12350;SDS011;6240;51.538;7.696;2022-08-19T00:03:52;6.47;;;5.88;;
12350;SDS011;6240;51.538;7.696;2022-08-19T00:06:19;7.03;;;6.32;;
12350;SDS011;6240;51.538;7.696;2022-08-19T00:08:48;6.97;;;6.28;;
12350;SDS011;6240;51.538;7.696;2022-08-19T00:11:16;7.60;;;6.63;;
12350;SDS011;6240;51.538;7.696;2022-08-19T00:13:44;7.18;;;6.43;;
12350;SDS011;6240;51.538;7.696;2022-08-19T00:16:13;6.18;;;5.57;;
12350;SDS011;6240;51.538;7.696;2022-08-19T00:18:40;6.95;;;6.22;;
12350;SDS011;6240;51.538;7.696;2022-08-19T00:21:08;6.32;;;5.72;;
12350;SDS011;6240;51.538;7.696;2022-08-19T00:23:35;6.88;;;6.20;;
12350;SDS011;6240;51.538;7.696;2022-08-19T00:26:04;8.88;;;6.53;;
12350;SDS011;6240;51.538;7.696;2022-08-19T00:28:32;8.38;;;6.72;;
12350;SDS011;6240;51.538;7.696;2022-08-19T00:31:01;7.57;;;5.95;;
12350;SDS011;6240;51.538;7.696;2022-08-19T00:33:29;7.65;;;6.82;;
12350;SDS011;6240;51.538;7.696;2022-08-19T00:35:57;7.05;;;6.45;;
12350;SDS011;6240;51.538;7.696;2022-08-19T00:38:25;6.82;;;6.05;;
12350;SDS011;6240;51.538;7.696;2022-08-19T00:40:52;6.78;;;6.18;;
12350;SDS011;6240;51.538;7.696;2022-08-19T00:43:22;8.65;;;7.88;;
12350;SDS011;6240;51.538;7.696;2022-08-19T00:45:51;8.57;;;7.13;;
12350;SDS011;6240;51.538;7.696;2022-08-19T00:48:18;8.10;;;7.20;;
12350;SDS011;6240;51.538;7.696;2022-08-19T00:50:46;10.30;;;8.43;;
12350;SDS011;6240;51.538;7.696;2022-08-19T00:53:15;9.77;;;8.35;;
12350;SDS011;6240;51.538;7.696;2022-08-19T00:55:44;11.05;;;9.70;;
12350;SDS011;6240;51.538;7.696;2022-08-19T00:58:13;10.65;;;8.93;;
12350;SDS011;6240;51.538;7.696;2022-08-19T01:00:42;10.43;;;9.32;;
12350;SDS011;6240;51.538;7.696;2022-08-19T01:03:11;10.32;;;9.13;;
12350;SDS011;6240;51.538;7.696;2022-08-19T01:05:39;10.75;;;9.73;;
12350;SDS011;6240;51.538;7.696;2022-08-19T01:08:07;11.05;;;10.00;;
12350;SDS011;6240;51.538;7.696;2022-08-19T01:10:36;11.00;;;9.95;;
12350;SDS011;6240;51.538;7.696;2022-08-19T01:13:04;13.10;;;11.13;;
12350;SDS011;6240;51.538;7.696;2022-08-19T01:15:32;13.05;;;11.73;;
12350;SDS011;6240;51.538;7.696;2022-08-19T01:18:04;14.88;;;13.38;;
12350;SDS011;6240;51.538;7.696;2022-08-19T01:20:31;14.95;;;13.48;;
12350;SDS011;6240;51.538;7.696;2022-08-19T01:23:01;14.70;;;12.98;;
12350;SDS011;6240;51.538;7.696;2022-08-19T01:25:29;14.23;;;12.80;;
12350;SDS011;6240;51.538;7.696;2022-08-19T01:27:57;14.77;;;12.88;;
12350;SDS011;6240;51.538;7.696;2022-08-19T01:30:26;14.45;;;12.95;;
12350;SDS011;6240;51.538;7.696;2022-08-19T01:32:53;14.88;;;13.45;;
12350;SDS011;6240;51.538;7.696;2022-08-19T01:35:22;14.93;;;13.48;;
12350;SDS011;6240;51.538;7.696;2022-08-19T01:37:50;15.35;;;13.88;;
12350;SDS011;6240;51.538;7.696;2022-08-19T01:40:21;18.23;;;14.77;;
12350;SDS011;6240;51.538;7.696;2022-08-19T01:42:49;15.77;;;14.13;;
12350;SDS011;6240;51.538;7.696;2022-08-19T01:45:17;17.30;;;14.77;;
12350;SDS011;6240;51.538;7.696;2022-08-19T01:47:44;16.67;;;15.07;;
12350;SDS011;6240;51.538;7.696;2022-08-19T01:50:12;17.77;;;15.43;;
12350;SDS011;6240;51.538;7.696;2022-08-19T01:52:40;17.05;;;15.45;;
12350;SDS011;6240;51.538;7.696;2022-08-19T01:55:10;16.83;;;15.13;;
12350;SDS011;6240;51.538;7.696;2022-08-19T01:57:39;17.02;;;15.32;;
12350;SDS011;6240;51.538;7.696;2022-08-19T02:00:09;17.60;;;15.90;;
12350;SDS011;6240;51.538;7.696;2022-08-19T02:02:36;17.88;;;15.98;;
12350;SDS011;6240;51.538;7.696;2022-08-19T02:05:04;18.38;;;16.48;;
12350;SDS011;6240;51.538;7.696;2022-08-19T02:07:32;19.40;;;17.50;;
12350;SDS011;6240;51.538;7.696;2022-08-19T02:10:00;18.45;;;16.75;;
12350;SDS011;6240;51.538;7.696;2022-08-19T02:12:28;18.88;;;16.95;;
12350;SDS011;6240;51.538;7.696;2022-08-19T02:14:57;19.83;;;17.85;;
12350;SDS011;6240;51.538;7.696;2022-08-19T02:17:26;18.92;;;16.92;;
12350;SDS011;6240;51.538;7.696;2022-08-19T02:19:53;19.83;;;17.83;;
12350;SDS011;6240;51.538;7.696;2022-08-19T02:22:20;18.77;;;16.88;;
12350;SDS011;6240;51.538;7.696;2022-08-19T02:24:48;19.33;;;17.48;;
12350;SDS011;6240;51.538;7.696;2022-08-19T02:27:15;21.75;;;17.85;;
12350;SDS011;6240;51.538;7.696;2022-08-19T02:29:42;20.25;;;18.13;;
12350;SDS011;6240;51.538;7.696;2022-08-19T02:32:11;20.67;;;18.38;;
12350;SDS011;6240;51.538;7.696;2022-08-19T02:34:38;19.90;;;18.00;;
12350;SDS011;6240;51.538;7.696;2022-08-19T02:37:06;21.25;;;18.75;;
12350;SDS011;6240;51.538;7.696;2022-08-19T02:39:53;21.13;;;19.05;;
12350;SDS011;6240;51.538;7.696;2022-08-19T02:42:19;21.27;;;19.02;;
12350;SDS011;6240;51.538;7.696;2022-08-19T02:44:47;21.15;;;18.92;;
12350;SDS011;6240;51.538;7.696;2022-08-19T02:47:15;22.58;;;20.13;;
12350;SDS011;6240;51.538;7.696;2022-08-19T02:49:43;20.85;;;18.65;;
12350;SDS011;6240;51.538;7.696;2022-08-19T02:52:11;22.80;;;20.63;;
12350;SDS011;6240;51.538;7.696;2022-08-19T02:54:38;23.25;;;20.73;;
12350;SDS011;6240;51.538;7.696;2022-08-19T02:57:06;24.10;;;21.70;;
12350;SDS011;6240;51.538;7.696;2022-08-19T02:59:33;24.55;;;21.17;;
12350;SDS011;6240;51.538;7.696;2022-08-19T03:02:01;22.25;;;19.85;;
12350;SDS011;6240;51.538;7.696;2022-08-19T03:04:29;23.90;;;21.38;;
12350;SDS011;6240;51.538;7.696;2022-08-19T03:06:56;24.40;;;20.05;;
12350;SDS011;6240;51.538;7.696;2022-08-19T03:09:24;24.35;;;20.83;;
12350;SDS011;6240;51.538;7.696;2022-08-19T03:11:51;23.77;;;20.83;;
12350;SDS011;6240;51.538;7.696;2022-08-19T03:14:18;23.85;;;21.08;;
12350;SDS011;6240;51.538;7.696;2022-08-19T03:16:46;22.67;;;20.33;;
12350;SDS011;6240;51.538;7.696;2022-08-19T03:19:15;23.33;;;20.85;;
12350;SDS011;6240;51.538;7.696;2022-08-19T03:21:45;22.63;;;20.13;;
12350;SDS011;6240;51.538;7.696;2022-08-19T03:24:13;22.98;;;19.63;;
12350;SDS011;6240;51.538;7.696;2022-08-19T03:26:41;22.45;;;20.10;;
12350;SDS011;6240;51.538;7.696;2022-08-19T03:29:08;25.55;;;21.15;;
12350;SDS011;6240;51.538;7.696;2022-08-19T03:31:37;23.15;;;20.65;;
12350;SDS011;6240;51.538;7.696;2022-08-19T03:34:05;25.80;;;22.15;;
12350;SDS011;6240;51.538;7.696;2022-08-19T03:36:32;24.50;;;21.90;;
12350;SDS011;6240;51.538;7.696;2022-08-19T03:39:00;25.38;;;22.05;;
12350;SDS011;6240;51.538;7.696;2022-08-19T03:41:29;22.92;;;20.58;;
12350;SDS011;6240;51.538;7.696;2022-08-19T03:43:56;24.83;;;22.05;;
12350;SDS011;6240;51.538;7.696;2022-08-19T03:46:24;23.77;;;21.25;;
12350;SDS011;6240;51.538;7.696;2022-08-19T03:48:53;26.25;;;22.75;;
12350;SDS011;6240;51.538;7.696;2022-08-19T03:51:21;26.77;;;22.15;;
12350;SDS011;6240;51.538;7.696;2022-08-19T03:53:49;25.95;;;21.98;;
12350;SDS011;6240;51.538;7.696;2022-08-19T03:56:18;23.77;;;21.10;;
12350;SDS011;6240;51.538;7.696;2022-08-19T03:58:45;24.98;;;22.27;;
12350;SDS011;6240;51.538;7.696;2022-08-19T04:01:13;27.58;;;23.00;;
12350;SDS011;6240;51.538;7.696;2022-08-19T04:03:41;30.48;;;22.17;;
12350;SDS011;6240;51.538;7.696;2022-08-19T04:06:09;24.90;;;22.30;;
12350;SDS011;6240;51.538;7.696;2022-08-19T04:08:38;24.13;;;21.55;;
12350;SDS011;6240;51.538;7.696;2022-08-19T04:11:06;24.70;;;21.52;;
12350;SDS011;6240;51.538;7.696;2022-08-19T04:13:35;26.33;;;22.42;;
12350;SDS011;6240;51.538;7.696;2022-08-19T04:16:02;25.55;;;21.85;;
12350;SDS011;6240;51.538;7.696;2022-08-19T04:18:30;25.13;;;22.35;;
12350;SDS011;6240;51.538;7.696;2022-08-19T04:20:57;24.20;;;20.80;;
12350;SDS011;6240;51.538;7.696;2022-08-19T04:23:26;23.60;;;21.05;;
12350;SDS011;6240;51.538;7.696;2022-08-19T04:25:53;24.00;;;21.50;;
12350;SDS011;6240;51.538;7.696;2022-08-19T04:28:21;28.70;;;22.95;;
12350;SDS011;6240;51.538;7.696;2022-08-19T04:30:50;24.50;;;22.00;;
12350;SDS011;6240;51.538;7.696;2022-08-19T04:33:20;25.80;;;22.30;;
12350;SDS011;6240;51.538;7.696;2022-08-19T04:35:48;24.73;;;21.08;;
12350;SDS011;6240;51.538;7.696;2022-08-19T04:38:16;27.23;;;21.50;;
12350;SDS011;6240;51.538;7.696;2022-08-19T04:40:44;25.30;;;21.13;;
12350;SDS011;6240;51.538;7.696;2022-08-19T04:43:29;25.42;;;20.98;;
12350;SDS011;6240;51.538;7.696;2022-08-19T04:45:59;24.55;;;21.95;;
12350;SDS011;6240;51.538;7.696;2022-08-19T04:48:30;25.50;;;22.65;;
12350;SDS011;6240;51.538;7.696;2022-08-19T04:50:58;26.08;;;21.45;;
12350;SDS011;6240;51.538;7.696;2022-08-19T04:53:26;23.13;;;20.55;;
12350;SDS011;6240;51.538;7.696;2022-08-19T04:55:54;24.77;;;21.90;;
12350;SDS011;6240;51.538;7.696;2022-08-19T04:58:21;23.35;;;20.83;;
12350;SDS011;6240;51.538;7.696;2022-08-19T05:00:49;23.83;;;20.52;;
12350;SDS011;6240;51.538;7.696;2022-08-19T05:03:18;22.67;;;19.85;;
12350;SDS011;6240;51.538;7.696;2022-08-19T05:05:49;23.23;;;20.83;;
12350;SDS011;6240;51.538;7.696;2022-08-19T05:08:22;22.02;;;19.73;;
12350;SDS011;6240;51.538;7.696;2022-08-19T05:10:53;23.47;;;20.90;;
12350;SDS011;6240;51.538;7.696;2022-08-19T05:13:22;24.83;;;20.67;;
12350;SDS011;6240;51.538;7.696;2022-08-19T05:15:53;22.03;;;19.63;;
12350;SDS011;6240;51.538;7.696;2022-08-19T05:18:22;25.13;;;21.60;;
12350;SDS011;6240;51.538;7.696;2022-08-19T05:21:07;25.30;;;22.70;;
12350;SDS011;6240;51.538;7.696;2022-08-19T05:23:52;24.57;;;21.90;;
12350;SDS011;6240;51.538;7.696;2022-08-19T05:26:20;28.10;;;23.17;;
12350;SDS011;6240;51.538;7.696;2022-08-19T05:28:47;25.93;;;23.23;;
12350;SDS011;6240;51.538;7.696;2022-08-19T05:31:14;26.93;;;23.97;;
12350;SDS011;6240;51.538;7.696;2022-08-19T05:33:43;28.97;;;25.57;;
12350;SDS011;6240;51.538;7.696;2022-08-19T05:36:10;26.90;;;24.10;;
12350;SDS011;6240;51.538;7.696;2022-08-19T05:38:38;26.17;;;23.33;;
12350;SDS011;6240;51.538;7.696;2022-08-19T05:41:06;28.00;;;23.30;;
12350;SDS011;6240;51.538;7.696;2022-08-19T05:43:34;26.63;;;23.73;;
12350;SDS011;6240;51.538;7.696;2022-08-19T05:46:02;26.37;;;23.57;;
12350;SDS011;6240;51.538;7.696;2022-08-19T05:48:31;26.57;;;23.67;;
12350;SDS011;6240;51.538;7.696;2022-08-19T05:51:02;25.40;;;22.70;;
12350;SDS011;6240;51.538;7.696;2022-08-19T05:53:31;26.47;;;23.57;;
12350;SDS011;6240;51.538;7.696;2022-08-19T05:56:02;24.63;;;22.00;;
12350;SDS011;6240;51.538;7.696;2022-08-19T05:58:29;26.67;;;23.87;;
12350;SDS011;6240;51.538;7.696;2022-08-19T06:00:58;25.30;;;22.60;;
12350;SDS011;6240;51.538;7.696;2022-08-19T06:03:29;24.67;;;22.07;;
12350;SDS011;6240;51.538;7.696;2022-08-19T06:05:56;25.30;;;21.80;;
12350;SDS011;6240;51.538;7.696;2022-08-19T06:08:26;24.77;;;21.57;;
12350;SDS011;6240;51.538;7.696;2022-08-19T06:10:54;23.63;;;21.07;;
12350;SDS011;6240;51.538;7.696;2022-08-19T06:13:23;24.60;;;21.92;;
12350;SDS011;6240;51.538;7.696;2022-08-19T06:15:51;24.13;;;21.63;;
12350;SDS011;6240;51.538;7.696;2022-08-19T06:18:18;25.23;;;22.50;;
12350;SDS011;6240;51.538;7.696;2022-08-19T06:20:46;25.13;;;21.90;;
12350;SDS011;6240;51.538;7.696;2022-08-19T06:23:14;24.38;;;21.08;;
12350;SDS011;6240;51.538;7.696;2022-08-19T06:25:43;24.47;;;21.77;;
12350;SDS011;6240;51.538;7.696;2022-08-19T06:28:10;26.47;;;20.70;;
12350;SDS011;6240;51.538;7.696;2022-08-19T06:30:37;22.53;;;20.30;;
12350;SDS011;6240;51.538;7.696;2022-08-19T06:33:04;21.65;;;19.00;;
12350;SDS011;6240;51.538;7.696;2022-08-19T06:35:32;23.13;;;19.50;;
12350;SDS011;6240;51.538;7.696;2022-08-19T06:37:59;25.08;;;19.58;;
12350;SDS011;6240;51.538;7.696;2022-08-19T06:40:26;22.48;;;20.08;;
12350;SDS011;6240;51.538;7.696;2022-08-19T06:42:54;22.90;;;20.45;;
12350;SDS011;6240;51.538;7.696;2022-08-19T06:45:24;22.85;;;19.00;;
12350;SDS011;6240;51.538;7.696;2022-08-19T06:47:51;23.60;;;19.98;;
12350;SDS011;6240;51.538;7.696;2022-08-19T06:50:21;21.88;;;19.60;;
12350;SDS011;6240;51.538;7.696;2022-08-19T06:52:49;21.92;;;19.52;;
12350;SDS011;6240;51.538;7.696;2022-08-19T06:55:16;23.80;;;20.83;;
12350;SDS011;6240;51.538;7.696;2022-08-19T06:57:43;22.63;;;18.92;;
12350;SDS011;6240;51.538;7.696;2022-08-19T07:00:14;21.52;;;18.88;;
12350;SDS011;6240;51.538;7.696;2022-08-19T07:02:41;23.30;;;20.80;;
12350;SDS011;6240;51.538;7.696;2022-08-19T07:05:09;21.45;;;19.17;;
12350;SDS011;6240;51.538;7.696;2022-08-19T07:07:36;20.85;;;18.70;;
12350;SDS011;6240;51.538;7.696;2022-08-19T07:10:04;21.38;;;18.88;;
12350;SDS011;6240;51.538;7.696;2022-08-19T07:12:31;23.45;;;19.48;;
12350;SDS011;6240;51.538;7.696;2022-08-19T07:14:59;23.15;;;18.33;;
12350;SDS011;6240;51.538;7.696;2022-08-19T07:17:28;19.98;;;17.50;;
12350;SDS011;6240;51.538;7.696;2022-08-19T07:19:55;22.48;;;19.05;;
12350;SDS011;6240;51.538;7.696;2022-08-19T07:22:22;24.27;;;18.77;;
12350;SDS011;6240;51.538;7.696;2022-08-19T07:24:49;23.65;;;17.98;;
12350;SDS011;6240;51.538;7.696;2022-08-19T07:27:17;24.55;;;16.73;;
12350;SDS011;6240;51.538;7.696;2022-08-19T07:29:46;20.00;;;16.25;;
12350;SDS011;6240;51.538;7.696;2022-08-19T07:32:13;21.23;;;16.13;;
12350;SDS011;6240;51.538;7.696;2022-08-19T07:34:42;19.58;;;15.93;;
12350;SDS011;6240;51.538;7.696;2022-08-19T07:37:10;20.65;;;17.08;;
12350;SDS011;6240;51.538;7.696;2022-08-19T07:39:38;19.65;;;15.57;;
12350;SDS011;6240;51.538;7.696;2022-08-19T07:42:08;17.98;;;15.25;;
12350;SDS011;6240;51.538;7.696;2022-08-19T07:44:36;18.85;;;15.30;;
12350;SDS011;6240;51.538;7.696;2022-08-19T07:47:04;16.30;;;14.40;;
12350;SDS011;6240;51.538;7.696;2022-08-19T07:49:31;17.25;;;14.18;;
12350;SDS011;6240;51.538;7.696;2022-08-19T07:52:02;18.13;;;13.63;;
12350;SDS011;6240;51.538;7.696;2022-08-19T07:54:31;22.33;;;14.85;;
12350;SDS011;6240;51.538;7.696;2022-08-19T07:57:02;19.95;;;13.98;;
12350;SDS011;6240;51.538;7.696;2022-08-19T07:59:33;15.95;;;14.25;;
12350;SDS011;6240;51.538;7.696;2022-08-19T08:02:03;19.00;;;14.75;;
12350;SDS011;6240;51.538;7.696;2022-08-19T08:04:32;16.50;;;14.80;;
12350;SDS011;6240;51.538;7.696;2022-08-19T08:07:19;17.38;;;14.90;;
12350;SDS011;6240;51.538;7.696;2022-08-19T08:10:04;21.15;;;15.88;;
12350;SDS011;6240;51.538;7.696;2022-08-19T08:12:34;22.05;;;16.00;;
12350;SDS011;6240;51.538;7.696;2022-08-19T08:15:07;18.33;;;13.20;;
12350;SDS011;6240;51.538;7.696;2022-08-19T08:17:35;12.68;;;11.43;;
12350;SDS011;6240;51.538;7.696;2022-08-19T08:20:04;14.85;;;11.55;;
12350;SDS011;6240;51.538;7.696;2022-08-19T08:22:34;13.98;;;11.60;;
12350;SDS011;6240;51.538;7.696;2022-08-19T08:25:20;12.75;;;9.48;;
12350;SDS011;6240;51.538;7.696;2022-08-19T08:27:48;10.95;;;9.85;;
12350;SDS011;6240;51.538;7.696;2022-08-19T08:30:19;11.75;;;10.55;;
12350;SDS011;6240;51.538;7.696;2022-08-19T08:32:47;13.57;;;9.95;;
12350;SDS011;6240;51.538;7.696;2022-08-19T08:35:18;14.18;;;10.35;;
12350;SDS011;6240;51.538;7.696;2022-08-19T08:37:49;12.80;;;11.40;;
12350;SDS011;6240;51.538;7.696;2022-08-19T08:40:20;13.50;;;10.70;;
12350;SDS011;6240;51.538;7.696;2022-08-19T08:42:50;13.15;;;9.35;;
12350;SDS011;6240;51.538;7.696;2022-08-19T08:45:18;14.05;;;9.40;;
12350;SDS011;6240;51.538;7.696;2022-08-19T08:47:48;11.48;;;9.75;;
12350;SDS011;6240;51.538;7.696;2022-08-19T08:50:18;11.63;;;9.38;;
12350;SDS011;6240;51.538;7.696;2022-08-19T08:52:50;12.32;;;9.38;;
12350;SDS011;6240;51.538;7.696;2022-08-19T08:55:19;11.10;;;8.80;;
12350;SDS011;6240;51.538;7.696;2022-08-19T08:57:50;10.80;;;9.80;;
12350;SDS011;6240;51.538;7.696;2022-08-19T09:00:24;10.60;;;8.68;;
12350;SDS011;6240;51.538;7.696;2022-08-19T09:02:52;9.35;;;8.23;;
12350;SDS011;6240;51.538;7.696;2022-08-19T09:05:20;11.35;;;9.10;;
12350;SDS011;6240;51.538;7.696;2022-08-19T09:07:52;11.38;;;9.10;;
12350;SDS011;6240;51.538;7.696;2022-08-19T09:10:25;9.60;;;8.63;;
12350;SDS011;6240;51.538;7.696;2022-08-19T09:12:59;9.55;;;7.80;;
12350;SDS011;6240;51.538;7.696;2022-08-19T09:15:29;9.77;;;8.85;;
12350;SDS011;6240;51.538;7.696;2022-08-19T09:17:59;10.88;;;8.45;;
12350;SDS011;6240;51.538;7.696;2022-08-19T09:20:29;12.18;;;8.02;;
12350;SDS011;6240;51.538;7.696;2022-08-19T09:23:01;11.15;;;9.32;;
12350;SDS011;6240;51.538;7.696;2022-08-19T09:25:30;9.27;;;7.35;;
12350;SDS011;6240;51.538;7.696;2022-08-19T09:27:59;7.07;;;6.38;;
12350;SDS011;6240;51.538;7.696;2022-08-19T09:30:28;8.10;;;7.35;;
12350;SDS011;6240;51.538;7.696;2022-08-19T09:32:56;8.65;;;7.85;;
12350;SDS011;6240;51.538;7.696;2022-08-19T09:35:23;11.88;;;7.60;;
12350;SDS011;6240;51.538;7.696;2022-08-19T09:37:51;10.82;;;7.93;;
12350;SDS011;6240;51.538;7.696;2022-08-19T09:40:22;7.18;;;6.53;;
12350;SDS011;6240;51.538;7.696;2022-08-19T09:42:49;8.43;;;6.97;;
12350;SDS011;6240;51.538;7.696;2022-08-19T09:45:18;9.75;;;6.35;;
12350;SDS011;6240;51.538;7.696;2022-08-19T09:47:47;9.65;;;7.38;;
12350;SDS011;6240;51.538;7.696;2022-08-19T09:50:15;11.05;;;8.15;;
12350;SDS011;6240;51.538;7.696;2022-08-19T09:52:43;7.65;;;6.85;;
12350;SDS011;6240;51.538;7.696;2022-08-19T09:55:11;7.47;;;6.18;;
12350;SDS011;6240;51.538;7.696;2022-08-19T09:57:40;7.85;;;6.03;;
12350;SDS011;6240;51.538;7.696;2022-08-19T10:00:08;7.68;;;6.82;;
12350;SDS011;6240;51.538;7.696;2022-08-19T10:02:35;7.82;;;6.47;;
12350;SDS011;6240;51.538;7.696;2022-08-19T10:05:03;8.23;;;6.47;;
12350;SDS011;6240;51.538;7.696;2022-08-19T10:07:48;8.55;;;7.40;;
12350;SDS011;6240;51.538;7.696;2022-08-19T10:10:16;8.93;;;6.88;;
12350;SDS011;6240;51.538;7.696;2022-08-19T10:12:46;6.57;;;5.82;;
12350;SDS011;6240;51.538;7.696;2022-08-19T10:15:14;6.82;;;6.22;;
12350;SDS011;6240;51.538;7.696;2022-08-19T10:17:41;7.32;;;6.63;;
12350;SDS011;6240;51.538;7.696;2022-08-19T10:20:08;8.00;;;6.75;;
12350;SDS011;6240;51.538;7.696;2022-08-19T10:22:37;9.60;;;8.50;;
12350;SDS011;6240;51.538;7.696;2022-08-19T10:25:05;8.15;;;7.25;;
12350;SDS011;6240;51.538;7.696;2022-08-19T10:27:33;7.35;;;6.65;;
12350;SDS011;6240;51.538;7.696;2022-08-19T10:30:02;9.20;;;8.30;;
12350;SDS011;6240;51.538;7.696;2022-08-19T10:32:30;10.68;;;9.32;;
12350;SDS011;6240;51.538;7.696;2022-08-19T10:34:57;8.55;;;7.70;;
12350;SDS011;6240;51.538;7.696;2022-08-19T10:37:25;8.60;;;7.75;;
12350;SDS011;6240;51.538;7.696;2022-08-19T10:39:53;8.30;;;7.50;;
12350;SDS011;6240;51.538;7.696;2022-08-19T10:42:22;13.48;;;8.52;;
12350;SDS011;6240;51.538;7.696;2022-08-19T10:44:53;7.47;;;6.68;;
12350;SDS011;6240;51.538;7.696;2022-08-19T10:47:23;8.77;;;7.90;;
12350;SDS011;6240;51.538;7.696;2022-08-19T10:49:50;8.10;;;7.30;;
12350;SDS011;6240;51.538;7.696;2022-08-19T10:52:35;9.48;;;7.55;;
12350;SDS011;6240;51.538;7.696;2022-08-19T10:55:04;6.15;;;5.57;;
12350;SDS011;6240;51.538;7.696;2022-08-19T10:57:49;6.15;;;5.03;;
12350;SDS011;6240;51.538;7.696;2022-08-19T11:00:18;4.88;;;4.28;;
12350;SDS011;6240;51.538;7.696;2022-08-19T11:02:47;6.88;;;6.30;;
12350;SDS011;6240;51.538;7.696;2022-08-19T11:05:14;7.50;;;5.78;;
12350;SDS011;6240;51.538;7.696;2022-08-19T11:07:42;6.65;;;5.55;;
12350;SDS011;6240;51.538;7.696;2022-08-19T11:10:12;6.30;;;4.97;;
12350;SDS011;6240;51.538;7.696;2022-08-19T11:12:40;6.45;;;4.70;;
12350;SDS011;6240;51.538;7.696;2022-08-19T11:15:08;5.57;;;5.07;;
12350;SDS011;6240;51.538;7.696;2022-08-19T11:17:38;6.65;;;5.95;;
12350;SDS011;6240;51.538;7.696;2022-08-19T11:20:12;7.72;;;6.18;;
12350;SDS011;6240;51.538;7.696;2022-08-19T11:22:42;7.32;;;5.93;;
12350;SDS011;6240;51.538;7.696;2022-08-19T11:25:10;6.22;;;5.63;;
12350;SDS011;6240;51.538;7.696;2022-08-19T11:27:38;6.45;;;4.70;;
12350;SDS011;6240;51.538;7.696;2022-08-19T11:30:08;6.35;;;4.80;;
12350;SDS011;6240;51.538;7.696;2022-08-19T11:32:36;6.22;;;5.38;;
12350;SDS011;6240;51.538;7.696;2022-08-19T11:35:03;6.30;;;5.70;;
12350;SDS011;6240;51.538;7.696;2022-08-19T11:37:33;5.30;;;4.80;;
12350;SDS011;6240;51.538;7.696;2022-08-19T11:40:03;6.90;;;5.45;;
12350;SDS011;6240;51.538;7.696;2022-08-19T11:42:32;4.97;;;4.50;;
12350;SDS011;6240;51.538;7.696;2022-08-19T11:45:17;4.53;;;4.10;;
12350;SDS011;6240;51.538;7.696;2022-08-19T11:47:44;4.05;;;3.70;;
12350;SDS011;6240;51.538;7.696;2022-08-19T11:50:12;5.22;;;4.13;;
12350;SDS011;6240;51.538;7.696;2022-08-19T11:52:43;6.32;;;5.65;;
12350;SDS011;6240;51.538;7.696;2022-08-19T11:55:10;5.80;;;5.30;;
12350;SDS011;6240;51.538;7.696;2022-08-19T11:57:38;7.43;;;6.40;;
12350;SDS011;6240;51.538;7.696;2022-08-19T12:00:06;6.82;;;5.93;;
12350;SDS011;6240;51.538;7.696;2022-08-19T12:02:40;7.60;;;6.90;;
12350;SDS011;6240;51.538;7.696;2022-08-19T12:05:10;6.80;;;5.25;;
12350;SDS011;6240;51.538;7.696;2022-08-19T12:07:40;5.47;;;4.88;;
12350;SDS011;6240;51.538;7.696;2022-08-19T12:10:11;5.57;;;5.00;;
12350;SDS011;6240;51.538;7.696;2022-08-19T12:12:40;6.55;;;5.63;;
12350;SDS011;6240;51.538;7.696;2022-08-19T12:15:08;6.95;;;5.53;;
12350;SDS011;6240;51.538;7.696;2022-08-19T12:17:36;7.47;;;6.78;;
12350;SDS011;6240;51.538;7.696;2022-08-19T12:20:04;7.30;;;6.60;;
12350;SDS011;6240;51.538;7.696;2022-08-19T12:22:31;7.10;;;6.50;;
12350;SDS011;6240;51.538;7.696;2022-08-19T12:25:00;7.57;;;6.55;;
12350;SDS011;6240;51.538;7.696;2022-08-19T12:27:28;7.15;;;6.53;;
12350;SDS011;6240;51.538;7.696;2022-08-19T12:29:56;8.30;;;7.60;;
12350;SDS011;6240;51.538;7.696;2022-08-19T12:32:23;6.95;;;5.30;;
12350;SDS011;6240;51.538;7.696;2022-08-19T12:34:51;7.20;;;6.50;;
12350;SDS011;6240;51.538;7.696;2022-08-19T12:37:19;6.05;;;5.00;;
12350;SDS011;6240;51.538;7.696;2022-08-19T12:39:47;5.88;;;5.35;;
12350;SDS011;6240;51.538;7.696;2022-08-19T12:42:15;6.05;;;4.88;;
12350;SDS011;6240;51.538;7.696;2022-08-19T12:44:46;5.13;;;4.72;;
12350;SDS011;6240;51.538;7.696;2022-08-19T12:47:17;6.60;;;6.00;;
12350;SDS011;6240;51.538;7.696;2022-08-19T12:49:44;6.03;;;5.53;;
12350;SDS011;6240;51.538;7.696;2022-08-19T12:52:12;6.15;;;5.50;;
12350;SDS011;6240;51.538;7.696;2022-08-19T12:54:42;7.07;;;6.38;;
12350;SDS011;6240;51.538;7.696;2022-08-19T12:57:12;10.23;;;6.68;;
12350;SDS011;6240;51.538;7.696;2022-08-19T12:59:42;11.65;;;5.60;;
12350;SDS011;6240;51.538;7.696;2022-08-19T13:02:11;5.07;;;4.57;;
12350;SDS011;6240;51.538;7.696;2022-08-19T13:04:38;5.10;;;4.55;;
12350;SDS011;6240;51.538;7.696;2022-08-19T13:07:06;5.47;;;4.97;;
12350;SDS011;6240;51.538;7.696;2022-08-19T13:09:34;6.90;;;6.20;;
12350;SDS011;6240;51.538;7.696;2022-08-19T13:12:02;7.78;;;6.93;;
12350;SDS011;6240;51.538;7.696;2022-08-19T13:14:32;8.35;;;6.55;;
12350;SDS011;6240;51.538;7.696;2022-08-19T13:17:00;7.22;;;6.53;;
12350;SDS011;6240;51.538;7.696;2022-08-19T13:19:29;6.28;;;5.63;;
12350;SDS011;6240;51.538;7.696;2022-08-19T13:21:56;5.97;;;5.45;;
12350;SDS011;6240;51.538;7.696;2022-08-19T13:24:23;5.90;;;5.45;;
12350;SDS011;6240;51.538;7.696;2022-08-19T13:26:51;8.25;;;6.15;;
12350;SDS011;6240;51.538;7.696;2022-08-19T13:29:18;6.22;;;5.63;;
12350;SDS011;6240;51.538;7.696;2022-08-19T13:32:03;6.60;;;5.97;;
12350;SDS011;6240;51.538;7.696;2022-08-19T13:34:50;6.05;;;5.32;;
12350;SDS011;6240;51.538;7.696;2022-08-19T13:37:17;7.70;;;6.90;;
12350;SDS011;6240;51.538;7.696;2022-08-19T13:40:05;9.73;;;6.75;;
12350;SDS011;6240;51.538;7.696;2022-08-19T13:42:33;8.50;;;6.60;;
12350;SDS011;6240;51.538;7.696;2022-08-19T13:45:00;7.00;;;6.30;;
12350;SDS011;6240;51.538;7.696;2022-08-19T13:47:28;7.63;;;6.85;;
12350;SDS011;6240;51.538;7.696;2022-08-19T13:49:56;11.10;;;8.00;;
12350;SDS011;6240;51.538;7.696;2022-08-19T13:52:24;7.65;;;7.00;;
12350;SDS011;6240;51.538;7.696;2022-08-19T13:54:51;7.18;;;6.45;;
12350;SDS011;6240;51.538;7.696;2022-08-19T13:57:19;7.05;;;6.50;;
12350;SDS011;6240;51.538;7.696;2022-08-19T13:59:46;7.07;;;6.47;;
12350;SDS011;6240;51.538;7.696;2022-08-19T14:02:13;7.22;;;6.30;;
12350;SDS011;6240;51.538;7.696;2022-08-19T14:04:43;9.40;;;6.50;;
12350;SDS011;6240;51.538;7.696;2022-08-19T14:07:18;7.80;;;7.00;;
12350;SDS011;6240;51.538;7.696;2022-08-19T14:09:49;8.02;;;7.22;;
12350;SDS011;6240;51.538;7.696;2022-08-19T14:12:18;8.85;;;7.95;;
12350;SDS011;6240;51.538;7.696;2022-08-19T14:14:47;6.90;;;6.22;;
12350;SDS011;6240;51.538;7.696;2022-08-19T14:17:14;7.07;;;6.38;;
12350;SDS011;6240;51.538;7.696;2022-08-19T14:19:42;7.47;;;6.28;;
12350;SDS011;6240;51.538;7.696;2022-08-19T14:22:09;5.72;;;5.15;;
12350;SDS011;6240;51.538;7.696;2022-08-19T14:24:38;7.47;;;5.38;;
12350;SDS011;6240;51.538;7.696;2022-08-19T14:27:05;6.10;;;5.50;;
12350;SDS011;6240;51.538;7.696;2022-08-19T14:29:33;5.78;;;5.07;;
12350;SDS011;6240;51.538;7.696;2022-08-19T14:32:00;5.95;;;5.45;;
12350;SDS011;6240;51.538;7.696;2022-08-19T14:34:29;6.97;;;6.05;;
12350;SDS011;6240;51.538;7.696;2022-08-19T14:36:59;7.50;;;5.93;;
12350;SDS011;6240;51.538;7.696;2022-08-19T14:39:27;6.53;;;5.93;;
12350;SDS011;6240;51.538;7.696;2022-08-19T14:41:57;6.20;;;5.68;;
12350;SDS011;6240;51.538;7.696;2022-08-19T14:44:25;6.03;;;5.43;;
12350;SDS011;6240;51.538;7.696;2022-08-19T14:46:52;6.55;;;5.95;;
12350;SDS011;6240;51.538;7.696;2022-08-19T14:49:19;6.80;;;6.07;;
12350;SDS011;6240;51.538;7.696;2022-08-19T14:51:47;6.80;;;6.10;;
12350;SDS011;6240;51.538;7.696;2022-08-19T14:54:14;7.10;;;5.93;;
12350;SDS011;6240;51.538;7.696;2022-08-19T14:56:41;7.60;;;6.80;;